Time;durP1;ratioP1;P1;durP2;ratioP2;P2;SDS_P1;SDS_P2;PMS_P1;PMS_P2;Temp;Humidity;BMP_temperature;BMP_pressure;BME280_temperature;BME280_humidity;BME280_pressure;Samples;Min_cycle;Max_cycle;Signal;HPM_P1;HPM_P2
2023/08/29 00:00:10;;;;;;;19.08;18.08;;;;;;;-141.02;66.68;43208.38;5132850;28;20228;-67
2023/08/29 00:02:40;;;;;;;18.92;18.02;;;;;;;-141.02;66.76;43194.94;5132708;28;20235;-59
2023/08/29 00:05:08;;;;;;;18.80;17.80;;;;;;;-141.02;66.89;43208.38;5132825;28;20214;-59
2023/08/29 00:07:35;;;;;;;19.00;18.02;;;;;;;-141.02;67.03;43187.28;5132399;28;20357;-58
2023/08/29 00:10:06;;;;;;;18.60;17.70;;;;;;;-141.02;67.08;43193.03;5132828;27;20214;-62
2023/08/29 00:12:33;;;;;;;18.95;17.95;;;;;;;-141.02;67.08;43196.88;5132360;27;20277;-64
2023/08/29 00:15:00;;;;;;;19.13;18.13;;;;;;;-141.02;67.18;43189.19;5132398;27;20662;-67
2023/08/29 00:17:27;;;;;;;19.23;18.23;;;;;;;-141.02;67.09;43179.59;5132728;28;20249;-58
2023/08/29 00:19:54;;;;;;;18.70;17.70;;;;;;;-141.02;67.22;43175.75;5132407;28;20195;-58
2023/08/29 00:22:21;;;;;;;18.92;17.92;;;;;;;-141.02;67.58;43183.44;5132259;28;20259;-67
2023/08/29 00:24:52;;;;;;;18.75;17.85;;;;;;;-141.02;67.62;43168.06;5132315;28;20279;-67
2023/08/29 00:27:20;;;;;;;19.17;18.17;;;;;;;-141.02;67.93;43164.22;5135374;27;20249;-58
2023/08/29 00:29:47;;;;;;;19.00;18.05;;;;;;;-141.02;67.97;43160.38;5135855;27;20223;-59
2023/08/29 00:32:14;;;;;;;19.13;18.13;;;;;;;-141.02;67.84;43166.16;5136337;27;20241;-68
2023/08/29 00:34:41;;;;;;;18.77;17.77;;;;;;;-141.02;68.07;43166.16;5136143;27;20227;-65
2023/08/29 00:37:08;;;;;;;19.00;18.00;;;;;;;-141.02;68.45;43154.63;5135754;27;20673;-67
2023/08/29 00:39:36;;;;;;;18.80;17.80;;;;;;;-141.02;68.45;43152.72;5136097;27;20196;-66
2023/08/29 00:42:03;;;;;;;18.48;17.58;;;;;;;-141.02;68.77;43131.59;5135955;27;20602;-68
2023/08/29 00:44:31;;;;;;;18.88;17.98;;;;;;;-141.02;68.81;43133.50;5135955;27;20271;-68
2023/08/29 00:46:59;;;;;;;19.10;18.20;;;;;;;-141.02;68.80;43129.66;5135818;27;20237;-66
2023/08/29 00:49:28;;;;;;;18.95;17.95;;;;;;;-141.02;68.96;43145.03;5135874;27;20620;-61
2023/08/29 00:52:05;;;;;;;18.95;17.95;;;;;;;-141.02;69.18;43122.00;5135889;27;20249;-60
2023/08/29 00:54:32;;;;;;;19.25;18.25;;;;;;;-141.02;69.44;43123.91;5135786;27;20224;-67
2023/08/29 00:57:00;;;;;;;19.35;18.35;;;;;;;-141.02;69.47;43122.00;5135740;27;20196;-67
2023/08/29 00:59:48;;;;;;;19.30;18.30;;;;;;;-141.02;69.73;43097.03;5135335;27;20253;-59
2023/08/29 01:02:15;;;;;;;18.90;18.00;;;;;;;-141.02;69.95;43085.50;5135152;27;20761;-68
2023/08/29 01:05:31;;;;;;;18.95;17.95;;;;;;;-141.02;70.08;43100.88;5135318;27;20271;-67
2023/08/29 01:07:59;;;;;;;19.00;18.00;;;;;;;-141.02;70.57;43112.41;5135534;27;20273;-66
2023/08/29 01:10:37;;;;;;;18.70;17.80;;;;;;;-141.02;70.45;43100.88;5135134;27;20227;-63
2023/08/29 01:13:16;;;;;;;19.05;18.05;;;;;;;-141.02;70.78;43083.59;5134951;27;20713;-67
2023/08/29 01:15:49;;;;;;;19.58;18.58;;;;;;;-141.02;71.09;43077.84;5135411;27;20189;-69
2023/08/29 01:18:19;;;;;;;19.52;18.52;;;;;;;-141.02;71.24;43074.00;5135365;27;20635;-65
2023/08/29 01:20:48;;;;;;;19.52;18.52;;;;;;;-141.02;71.14;43064.41;5135346;27;20193;-68
2023/08/29 01:23:24;;;;;;;19.27;18.27;;;;;;;-141.02;71.13;43095.13;5135081;27;20224;-59
2023/08/29 01:25:56;;;;;;;18.77;17.85;;;;;;;-141.02;71.46;43097.03;5134845;27;20283;-61
2023/08/29 01:31:47;;;;;;;18.35;17.45;;;;;;;-141.02;71.79;43058.63;5134817;27;20179;-69
2023/08/29 01:34:14;;;;;;;18.60;17.70;;;;;;;-141.02;71.91;43064.41;5134732;27;20736;-68
2023/08/29 01:36:41;;;;;;;18.35;17.45;;;;;;;-141.02;71.83;43062.47;5134499;27;20224;-67
2023/08/29 01:39:08;;;;;;;18.50;17.60;;;;;;;-141.02;72.08;43062.47;5134851;27;20641;-67
2023/08/29 01:41:35;;;;;;;17.95;17.15;;;;;;;-141.02;72.02;43074.00;5134439;27;20224;-59
2023/08/29 01:44:24;;;;;;;18.30;17.42;;;;;;;-141.02;72.01;43074.00;5134752;27;20193;-68
2023/08/29 01:47:04;;;;;;;18.10;17.30;;;;;;;-141.02;72.25;43049.03;5134412;27;20682;-68
2023/08/29 01:49:37;;;;;;;18.25;17.45;;;;;;;-141.02;72.39;43070.16;5134267;27;20569;-66
2023/08/29 01:52:04;;;;;;;18.52;17.63;;;;;;;-141.02;72.42;43066.31;5134624;27;20618;-68
2023/08/29 01:54:31;;;;;;;18.55;17.65;;;;;;;-141.02;72.38;43056.72;5134562;27;20194;-68
2023/08/29 01:56:59;;;;;;;17.92;17.13;;;;;;;-141.02;72.66;43058.63;5134886;27;20605;-67
2023/08/29 01:59:28;;;;;;;18.52;17.63;;;;;;;-141.02;72.76;43047.13;5134455;27;20249;-67
2023/08/29 02:01:59;;;;;;;18.52;17.63;;;;;;;-141.02;73.07;43047.13;5134378;27;20303;-59
2023/08/29 02:04:26;;;;;;;18.27;17.48;;;;;;;-141.02;73.17;43039.44;5134043;27;20185;-67
2023/08/29 02:10:18;;;;;;;18.17;17.38;;;;;;;-141.02;73.60;43035.59;5134043;27;20237;-67
2023/08/29 02:16:10;;;;;;;18.50;17.60;;;;;;;-141.02;74.15;43035.59;5068928;27;20262;-68
2023/08/29 02:18:39;;;;;;;18.40;17.52;;;;;;;-141.02;74.03;43027.91;5133734;27;20659;-61
2023/08/29 02:21:06;;;;;;;18.55;17.65;;;;;;;-141.02;74.17;43016.41;5134011;27;20198;-67
2023/08/29 02:23:33;;;;;;;18.58;17.67;;;;;;;-141.02;74.54;43008.72;5133597;27;20721;-59
2023/08/29 02:26:03;;;;;;;18.00;17.20;;;;;;;-141.02;74.73;42978.00;5133681;27;20283;-66
2023/08/29 02:28:35;;;;;;;18.13;17.33;;;;;;;-141.02;74.86;43004.88;5133949;27;20203;-61
2023/08/29 02:31:05;;;;;;;18.20;17.40;;;;;;;-141.02;75.30;43001.03;5133932;27;20184;-67
2023/08/29 02:33:34;;;;;;;18.35;17.55;;;;;;;-141.02;75.43;43004.88;5133499;27;20192;-66
2023/08/29 02:36:04;;;;;;;18.45;17.60;;;;;;;-141.02;75.53;43004.88;5133911;27;20196;-68
2023/08/29 02:38:59;;;;;;;18.38;17.58;;;;;;;-141.02;75.76;42972.25;5133458;27;20288;-67
2023/08/29 02:41:48;;;;;;;18.23;17.42;;;;;;;-141.02;75.79;42983.75;5133743;27;20193;-67
2023/08/29 02:44:15;;;;;;;18.00;17.20;;;;;;;-141.02;75.81;42945.38;5133319;27;20275;-67
2023/08/29 02:46:42;;;;;;;17.95;17.15;;;;;;;-141.02;76.02;42985.69;5133630;27;20192;-58
2023/08/29 02:49:09;;;;;;;17.88;17.08;;;;;;;-141.02;76.10;42954.97;5132762;27;20665;-58
2023/08/29 02:51:38;;;;;;;17.95;17.15;;;;;;;-141.02;76.27;42958.81;5133249;27;20623;-67
2023/08/29 02:54:07;;;;;;;17.98;17.17;;;;;;;-141.02;76.42;42962.66;5133208;27;20666;-59
2023/08/29 02:57:00;;;;;;;18.15;17.35;;;;;;;-141.02;76.80;42951.13;5133242;27;20654;-66
2023/08/29 02:59:29;;;;;;;17.95;17.15;;;;;;;-141.02;76.58;42951.13;5133456;27;20245;-67
2023/08/29 03:01:57;;;;;;;17.60;16.80;;;;;;;-141.02;76.68;42947.28;5133062;27;20231;-66
2023/08/29 03:04:24;;;;;;;17.85;17.05;;;;;;;-141.02;76.74;42928.09;5133882;27;20192;-67
2023/08/29 03:06:53;;;;;;;17.30;16.60;;;;;;;-141.02;76.77;42960.72;5133378;27;20192;-66
2023/08/29 03:12:41;;;;;;;17.50;16.80;;;;;;;-141.02;77.84;42903.13;5131681;28;20231;-67
2023/08/29 03:15:09;;;;;;;18.05;17.25;;;;;;;-141.02;77.94;42939.59;5133287;27;20200;-60
2023/08/29 03:21:05;;;;;;;17.38;16.65;;;;;;;-141.02;78.35;42928.09;5133067;28;20184;-67
2023/08/29 03:23:34;;;;;;;17.08;16.38;;;;;;;-141.02;78.46;42901.22;5132767;28;20258;-62
2023/08/29 03:26:06;;;;;;;17.55;16.75;;;;;;;-141.02;78.70;42908.88;5133204;27;20257;-66
2023/08/29 03:28:33;;;;;;;17.15;16.45;;;;;;;-141.02;79.09;42897.38;5132815;28;20721;-62
2023/08/29 03:31:08;;;;;;;17.15;16.45;;;;;;;-141.02;79.35;42924.25;5132779;27;20196;-67
2023/08/29 03:33:36;;;;;;;17.63;16.83;;;;;;;-141.02;79.16;42939.59;5132827;28;20199;-67
2023/08/29 03:36:03;;;;;;;17.98;17.17;;;;;;;-141.02;79.57;42947.28;5133035;28;20344;-58
2023/08/29 03:38:31;;;;;;;18.25;17.45;;;;;;;-141.02;79.97;42989.53;5132718;28;20192;-66
2023/08/29 03:40:59;;;;;;;17.83;17.02;;;;;;;-141.02;79.97;42951.13;5132700;28;20192;-66
2023/08/29 03:43:28;;;;;;;17.98;17.17;;;;;;;-141.02;80.01;43054.78;5132913;28;20256;-67
2023/08/29 03:45:58;;;;;;;16.95;16.25;;;;;;;-141.02;80.25;43127.75;5132712;28;20297;-66
2023/08/29 03:48:25;;;;;;;17.70;16.90;;;;;;;-141.02;79.71;43177.66;5132937;28;20193;-66
2023/08/29 03:50:52;;;;;;;18.25;17.45;;;;;;;-141.02;79.96;43260.22;5132955;27;20249;-66
2023/08/29 03:53:19;;;;;;;18.58;17.77;;;;;;;-141.02;80.02;43269.81;5132551;28;20674;-59
2023/08/29 03:55:46;;;;;;;18.33;17.52;;;;;;;-141.02;79.96;43283.28;5132952;28;20203;-67
2023/08/29 03:58:15;;;;;;;16.92;16.23;;;;;;;-141.02;79.88;43310.16;5132541;27;20731;-67
2023/08/29 04:00:42;;;;;;;18.65;17.95;;;;;;;-141.02;80.05;43310.16;5132830;27;20662;-67
2023/08/29 04:03:09;;;;;;;18.25;17.55;;;;;;;-141.02;79.71;43356.22;5136652;27;20260;-58
2023/08/29 04:05:36;;;;;;;18.15;17.45;;;;;;;-141.02;79.12;43350.47;5136406;27;20696;-67
2023/08/29 04:08:05;;;;;;;17.88;17.17;;;;;;;-141.02;79.24;43379.28;5136362;27;20287;-67
2023/08/29 04:10:38;;;;;;;18.00;17.30;;;;;;;-141.02;78.86;43388.88;5136287;27;20676;-66
2023/08/29 04:13:06;;;;;;;18.15;17.45;;;;;;;-141.02;78.19;43484.88;5136194;27;20225;-68
2023/08/29 04:15:35;;;;;;;18.40;17.70;;;;;;;-141.02;77.59;43507.91;5136194;27;20663;-66
2023/08/29 04:18:02;;;;;;;18.52;17.73;;;;;;;-141.02;77.27;43538.63;5136493;27;20228;-67
2023/08/29 04:20:29;;;;;;;18.85;18.05;;;;;;;-141.02;76.91;43571.28;5136160;27;20296;-60
2023/08/29 04:22:58;;;;;;;18.75;17.95;;;;;;;-141.02;76.86;43554.00;5136366;27;20228;-67
2023/08/29 04:25:26;;;;;;;17.92;17.23;;;;;;;-141.02;76.71;43577.03;5136047;27;20279;-68
2023/08/29 04:27:53;;;;;;;18.60;17.85;;;;;;;-141.02;76.41;43575.13;5135993;27;20714;-67
2023/08/29 04:30:20;;;;;;;18.25;17.55;;;;;;;-141.02;76.05;43586.66;5136273;27;20231;-67
2023/08/29 04:32:50;;;;;;;19.13;18.33;;;;;;;-141.02;75.61;43603.94;5136197;27;20196;-65
2023/08/29 04:35:17;;;;;;;18.98;18.17;;;;;;;-141.02;75.57;43607.75;5136283;27;20637;-67
2023/08/29 04:37:46;;;;;;;18.98;18.17;;;;;;;-141.02;75.39;43630.81;5135816;27;20196;-62
2023/08/29 04:40:13;;;;;;;18.75;17.95;;;;;;;-141.02;75.13;43626.97;5136021;27;20233;-67
2023/08/29 04:42:41;;;;;;;18.85;18.05;;;;;;;-141.02;75.17;43638.50;5135669;27;20281;-66
2023/08/29 04:45:09;;;;;;;18.77;17.98;;;;;;;-141.02;75.06;43626.97;5135588;27;20654;-66
2023/08/29 04:47:36;;;;;;;18.80;18.00;;;;;;;-141.02;75.02;43650.00;5135974;27;20199;-67
2023/08/29 04:50:06;;;;;;;18.33;17.63;;;;;;;-141.02;74.92;43625.03;5135878;27;20192;-68
2023/08/29 04:52:33;;;;;;;18.75;17.95;;;;;;;-141.02;74.68;43625.03;5135574;27;20232;-66
2023/08/29 04:55:00;;;;;;;18.70;17.90;;;;;;;-141.02;74.99;43630.81;5135505;27;20239;-66
2023/08/29 04:57:27;;;;;;;18.48;17.67;;;;;;;-141.02;74.94;43625.03;5135777;27;20232;-67
2023/08/29 04:59:54;;;;;;;18.27;17.58;;;;;;;-141.02;74.80;43646.16;5135411;27;20205;-68
2023/08/29 05:02:21;;;;;;;18.40;17.70;;;;;;;-141.02;74.97;43598.16;5135408;27;20714;-67
2023/08/29 05:04:48;;;;;;;18.25;17.55;;;;;;;-141.02;75.12;43596.25;5135532;27;20224;-68
2023/08/29 05:07:16;;;;;;;18.13;17.42;;;;;;;-141.02;75.47;43592.41;5135564;27;20553;-67
2023/08/29 05:09:43;;;;;;;18.00;17.30;;;;;;;-141.02;75.37;43603.94;5135185;27;20284;-67
2023/08/29 05:12:11;;;;;;;18.08;17.38;;;;;;;-141.02;74.80;43565.53;5134479;27;20229;-67
2023/08/29 05:14:39;;;;;;;17.98;17.27;;;;;;;-141.02;74.52;43605.84;5135289;27;20188;-62
2023/08/29 05:17:06;;;;;;;17.65;16.95;;;;;;;-141.02;74.00;43600.09;5135375;27;20196;-68
2023/08/29 05:19:33;;;;;;;17.95;17.25;;;;;;;-141.02;74.26;43586.66;5134997;27;20662;-68
2023/08/29 05:22:00;;;;;;;17.77;17.08;;;;;;;-141.02;73.99;43607.75;5134933;27;20227;-68
2023/08/29 05:24:28;;;;;;;17.98;17.27;;;;;;;-141.02;74.10;43538.63;5135118;27;20319;-67
2023/08/29 05:26:55;;;;;;;17.73;17.02;;;;;;;-141.02;73.68;43565.53;5135152;27;20196;-67
2023/08/29 05:29:22;;;;;;;17.70;17.00;;;;;;;-141.02;74.00;43563.59;5135086;27;20201;-67
2023/08/29 05:31:49;;;;;;;17.67;16.98;;;;;;;-141.02;73.49;43534.78;5134681;27;20235;-61
2023/08/29 05:34:16;;;;;;;17.70;17.00;;;;;;;-141.02;73.49;43567.44;5134690;27;20630;-67
2023/08/29 05:36:43;;;;;;;16.75;16.15;;;;;;;-141.02;72.82;43538.63;5134929;27;20625;-59
2023/08/29 05:39:10;;;;;;;18.08;17.38;;;;;;;-141.02;72.68;43602.00;5134907;27;20230;-66
2023/08/29 05:41:38;;;;;;;17.80;17.10;;;;;;;-141.02;72.16;43569.34;5134897;27;20193;-67
2023/08/29 05:44:06;;;;;;;18.00;17.30;;;;;;;-141.02;72.59;43588.56;5134680;27;20227;-67
2023/08/29 05:46:33;;;;;;;17.77;17.08;;;;;;;-141.02;72.32;43569.34;5134923;27;20188;-67
2023/08/29 05:49:00;;;;;;;17.95;17.25;;;;;;;-141.02;72.24;43577.03;5134351;27;20713;-67
2023/08/29 05:51:27;;;;;;;17.98;17.27;;;;;;;-141.02;72.43;43557.84;5134647;27;20280;-67
2023/08/29 05:53:54;;;;;;;18.27;17.58;;;;;;;-141.02;72.51;43594.31;5134594;27;20568;-60
2023/08/29 05:56:21;;;;;;;18.25;17.55;;;;;;;-141.02;72.77;43578.97;5134266;27;20199;-58
2023/08/29 05:58:50;;;;;;;18.17;17.48;;;;;;;-141.02;72.45;43573.19;5134579;27;20619;-67
2023/08/29 06:01:17;;;;;;;17.92;17.23;;;;;;;-141.02;72.56;43554.00;5134440;27;20192;-67
2023/08/29 06:03:44;;;;;;;18.33;17.63;;;;;;;-141.02;72.09;43615.44;5133987;27;20276;-67
2023/08/29 06:06:11;;;;;;;18.75;17.95;;;;;;;-141.02;72.57;43577.03;5134817;27;20200;-65
2023/08/29 06:08:40;;;;;;;18.67;17.88;;;;;;;-141.02;72.83;43569.34;5134067;27;20573;-59
2023/08/29 06:11:07;;;;;;;18.20;17.50;;;;;;;-141.02;72.88;43580.88;5134270;27;20197;-59
2023/08/29 06:13:33;;;;;;;18.67;17.88;;;;;;;-141.02;73.02;43588.56;5134231;27;20248;-67
2023/08/29 06:16:03;;;;;;;18.00;17.30;;;;;;;-141.02;72.99;43573.19;5133868;27;20196;-67
2023/08/29 06:18:31;;;;;;;18.75;17.95;;;;;;;-141.02;72.06;43588.56;5134081;27;20196;-59
2023/08/29 06:20:57;;;;;;;17.85;17.15;;;;;;;-141.02;71.93;43577.03;5134137;27;20215;-67
2023/08/29 06:23:24;;;;;;;18.30;17.60;;;;;;;-141.02;71.57;43650.00;5133430;27;20259;-67
2023/08/29 06:25:52;;;;;;;18.20;17.50;;;;;;;-141.02;70.73;43638.50;5133844;27;20207;-61
2023/08/29 06:28:19;;;;;;;18.20;17.50;;;;;;;-141.02;69.90;43592.41;5133699;27;20284;-67
2023/08/29 06:30:46;;;;;;;18.10;17.40;;;;;;;-141.02;69.55;43623.13;5133515;27;20727;-58
2023/08/29 06:33:14;;;;;;;18.08;17.33;;;;;;;-141.02;69.08;43617.38;5133764;27;20279;-58
2023/08/29 06:35:41;;;;;;;17.60;16.90;;;;;;;-141.02;67.99;43625.03;5133786;27;20192;-59
2023/08/29 06:38:08;;;;;;;17.70;17.00;;;;;;;-141.02;67.86;43623.13;5133428;27;20245;-67
2023/08/29 06:40:35;;;;;;;17.92;17.23;;;;;;;-141.02;67.29;43619.28;5133779;27;20253;-68
2023/08/29 06:43:02;;;;;;;17.73;17.02;;;;;;;-141.02;67.84;43684.56;5133242;27;20569;-59
2023/08/29 06:45:29;;;;;;;17.73;17.02;;;;;;;-141.02;67.49;43665.38;5133608;27;20253;-59
2023/08/29 06:47:56;;;;;;;17.15;16.45;;;;;;;-141.02;66.94;43665.38;5133300;27;20291;-60
2023/08/29 06:50:25;;;;;;;17.55;16.85;;;;;;;-141.02;67.16;43642.31;5133308;27;20196;-58
2023/08/29 06:52:52;;;;;;;17.30;16.60;;;;;;;-141.02;66.56;43657.69;5133590;27;20193;-67
2023/08/29 06:55:19;;;;;;;17.60;16.90;;;;;;;-141.02;66.48;43680.72;5133166;27;20227;-67
2023/08/29 06:57:46;;;;;;;17.65;16.95;;;;;;;-141.02;65.61;43673.06;5133472;27;20245;-67
2023/08/29 07:00:14;;;;;;;18.05;17.25;;;;;;;-141.02;64.27;43667.28;5133417;27;20192;-67
2023/08/29 07:02:41;;;;;;;17.90;17.10;;;;;;;-141.02;63.37;43676.91;5133481;27;20200;-67
2023/08/29 07:05:08;;;;;;;17.42;16.70;;;;;;;-141.02;63.05;43642.31;5133259;27;20220;-59
2023/08/29 07:07:38;;;;;;;17.92;17.13;;;;;;;-141.02;62.68;43696.09;5133328;27;20224;-68
2023/08/29 07:10:06;;;;;;;17.98;17.17;;;;;;;-141.02;62.21;43705.69;5133371;27;20184;-67
2023/08/29 07:12:33;;;;;;;17.65;16.85;;;;;;;-141.02;62.83;43680.72;5132857;27;20228;-67
2023/08/29 07:15:00;;;;;;;17.75;16.95;;;;;;;-141.02;61.68;43711.47;5133285;28;20204;-63
2023/08/29 07:17:27;;;;;;;17.85;17.05;;;;;;;-141.02;61.08;43721.06;5133688;28;20268;-67
2023/08/29 07:19:54;;;;;;;18.00;17.20;;;;;;;-141.02;61.42;43671.13;5132920;28;20196;-67
2023/08/29 07:22:21;;;;;;;18.08;17.27;;;;;;;-141.02;61.90;43665.38;5133643;27;20281;-59
2023/08/29 07:24:50;;;;;;;18.30;17.50;;;;;;;-141.02;62.70;43640.41;5132795;28;20319;-67
2023/08/29 07:27:17;;;;;;;17.85;17.05;;;;;;;-141.02;62.75;43661.53;5133678;27;20221;-67
2023/08/29 07:29:44;;;;;;;17.98;17.17;;;;;;;-141.02;63.23;43680.72;5133096;28;20203;-67
2023/08/29 07:32:11;;;;;;;17.80;17.00;;;;;;;-141.02;63.71;43698.00;5133120;28;20272;-67
2023/08/29 07:34:39;;;;;;;17.83;17.00;;;;;;;-141.02;63.83;43711.47;5133006;27;20624;-66
2023/08/29 07:37:06;;;;;;;17.67;16.88;;;;;;;-141.02;63.71;43701.84;5137321;27;20188;-68
2023/08/29 07:39:34;;;;;;;18.15;17.25;;;;;;;-141.02;63.68;43699.94;5136953;27;20196;-68
2023/08/29 07:42:03;;;;;;;17.67;16.83;;;;;;;-141.02;64.05;43680.72;5136865;27;20196;-60
2023/08/29 07:44:30;;;;;;;17.60;16.80;;;;;;;-141.02;63.89;43711.47;5136730;27;20227;-67
2023/08/29 07:46:57;;;;;;;17.77;16.98;;;;;;;-141.02;63.81;43726.81;5137272;27;20196;-58
2023/08/29 07:49:24;;;;;;;18.15;17.25;;;;;;;-141.02;63.46;43688.41;5136721;27;20670;-61
2023/08/29 07:51:52;;;;;;;17.88;17.08;;;;;;;-141.02;63.20;43696.09;5136975;27;20200;-64
2023/08/29 07:54:20;;;;;;;17.45;16.65;;;;;;;-141.02;62.90;43803.63;5136984;27;20236;-66
2023/08/29 07:56:47;;;;;;;17.60;16.80;;;;;;;-141.02;62.22;43795.94;5136964;27;20228;-67
2023/08/29 07:59:15;;;;;;;17.92;17.02;;;;;;;-141.02;61.01;43778.66;5136825;27;20280;-66
2023/08/29 08:01:43;;;;;;;17.02;16.23;;;;;;;-141.02;59.72;43795.94;5136519;27;20287;-60
2023/08/29 08:04:10;;;;;;;17.27;16.48;;;;;;;-141.02;59.99;43799.78;5136489;27;20226;-59
2023/08/29 08:06:36;;;;;;;17.08;16.27;;;;;;;-141.02;59.08;43795.94;5137177;27;20230;-67
2023/08/29 08:09:04;;;;;;;17.08;16.27;;;;;;;-141.02;59.17;43788.28;5136396;27;20188;-67
2023/08/29 08:11:32;;;;;;;117.18;107.85;;;;;;;-141.02;58.17;43836.28;5136383;27;20713;-64
2023/08/29 08:13:59;;;;;;;17.38;16.58;;;;;;;-141.02;58.62;43646.16;5136700;27;20604;-68
2023/08/29 08:16:27;;;;;;;17.27;16.48;;;;;;;-141.02;58.88;43676.91;5136507;27;20227;-67
2023/08/29 08:18:54;;;;;;;17.48;16.67;;;;;;;-141.02;60.36;43722.97;5136219;27;20736;-67
2023/08/29 08:21:21;;;;;;;17.65;16.85;;;;;;;-141.02;60.33;43730.66;5136372;27;20196;-59
2023/08/29 08:23:49;;;;;;;17.77;16.98;;;;;;;-141.02;60.36;43726.81;5136340;27;20199;-68
2023/08/29 08:26:16;;;;;;;17.67;16.88;;;;;;;-141.02;60.36;43761.38;5136363;27;20196;-67
2023/08/29 08:28:44;;;;;;;18.05;17.15;;;;;;;-141.02;59.90;43734.50;5136013;27;20189;-68
2023/08/29 08:31:11;;;;;;;17.88;16.98;;;;;;;-141.02;59.62;43734.50;5135883;27;20207;-63
2023/08/29 08:33:40;;;;;;;17.55;16.75;;;;;;;-141.02;59.95;43809.38;5135860;27;20283;-64
2023/08/29 08:36:07;;;;;;;17.52;16.73;;;;;;;-141.02;59.46;43815.16;5136152;27;20196;-60
2023/08/29 08:38:34;;;;;;;17.85;16.95;;;;;;;-141.02;58.53;43790.19;5136133;27;20192;-68
2023/08/29 08:41:02;;;;;;;17.77;16.88;;;;;;;-141.02;57.90;43826.66;5135763;27;20207;-64
2023/08/29 08:43:30;;;;;;;18.15;17.25;;;;;;;-141.02;57.01;43880.44;5135706;27;20570;-67
2023/08/29 08:45:58;;;;;;;17.55;16.65;;;;;;;-141.02;56.60;43872.75;5135512;27;20698;-68
2023/08/29 08:48:26;;;;;;;17.75;16.85;;;;;;;-141.02;56.18;43874.69;5134865;27;20199;-59
2023/08/29 08:50:55;;;;;;;17.75;16.85;;;;;;;-141.02;55.78;43895.81;5135577;27;20235;-68
2023/08/29 08:53:22;;;;;;;17.23;16.42;;;;;;;-141.02;54.50;43930.38;5135851;27;20246;-65
2023/08/29 08:55:50;;;;;;;18.00;17.20;;;;;;;-141.02;54.56;43799.78;5135524;27;20624;-58
2023/08/29 08:58:18;;;;;;;17.70;16.90;;;;;;;-141.02;55.55;43782.50;5135634;27;20715;-68
2023/08/29 09:00:45;;;;;;;17.27;16.48;;;;;;;-141.02;55.40;43888.13;5135428;27;20237;-63
2023/08/29 09:03:13;;;;;;;17.35;16.55;;;;;;;-141.02;55.78;43792.09;5135642;27;20246;-66
2023/08/29 09:05:40;;;;;;;17.33;16.52;;;;;;;-141.02;55.81;43815.16;5135245;27;20224;-67
2023/08/29 09:08:08;;;;;;;17.42;16.63;;;;;;;-141.02;55.78;43780.59;5135218;27;20197;-63
2023/08/29 09:10:39;;;;;;;17.00;16.20;;;;;;;-141.02;56.17;43819.00;5135472;27;20275;-68
2023/08/29 09:13:06;;;;;;;17.35;16.55;;;;;;;-141.02;56.01;43830.50;5135025;27;20272;-59
2023/08/29 09:15:34;;;;;;;17.35;16.55;;;;;;;-141.02;55.75;43807.47;5135104;27;20246;-67
2023/08/29 09:18:01;;;;;;;17.42;16.63;;;;;;;-141.02;55.48;43807.47;5135003;27;20201;-66
2023/08/29 09:20:30;;;;;;;17.50;16.70;;;;;;;-141.02;55.92;43807.47;5135126;27;20284;-66
2023/08/29 09:22:57;;;;;;;17.48;16.67;;;;;;;-141.02;55.79;43872.75;5135247;27;20193;-64
2023/08/29 09:25:27;;;;;;;17.50;16.70;;;;;;;-141.02;55.70;43822.84;5135177;27;20224;-56
2023/08/29 09:27:54;;;;;;;17.17;16.38;;;;;;;-141.02;55.83;43820.91;5134856;27;20192;-64
2023/08/29 09:30:21;;;;;;;17.20;16.40;;;;;;;-141.02;56.02;43795.94;5134825;27;20192;-64
2023/08/29 09:32:50;;;;;;;17.17;16.38;;;;;;;-141.02;56.17;43772.91;5135039;27;20203;-65
2023/08/29 09:35:21;;;;;;;16.95;16.15;;;;;;;-141.02;56.18;43784.44;5134704;27;20201;-56
2023/08/29 09:37:52;;;;;;;17.02;16.23;;;;;;;-141.02;56.37;43807.47;5134955;27;20267;-65
2023/08/29 09:40:20;;;;;;;17.00;16.20;;;;;;;-141.02;56.28;43813.22;5134942;27;20195;-65
2023/08/29 09:42:55;;;;;;;17.08;16.27;;;;;;;-141.02;56.30;43826.66;5134487;27;20231;-65
2023/08/29 09:45:22;;;;;;;16.88;16.08;;;;;;;-141.02;55.14;43790.19;5134415;27;20322;-66
2023/08/29 09:47:53;;;;;;;17.48;16.67;;;;;;;-141.02;55.99;43776.75;5134435;27;20670;-65
2023/08/29 09:50:21;;;;;;;17.23;16.42;;;;;;;-141.02;56.07;43815.16;5134460;27;20224;-65
2023/08/29 09:52:49;;;;;;;17.23;16.42;;;;;;;-141.02;56.11;43815.16;5134664;27;20279;-65
2023/08/29 09:55:20;;;;;;;17.10;16.30;;;;;;;-141.02;55.78;43880.44;5134594;27;20197;-65
2023/08/29 09:57:52;;;;;;;17.35;16.48;;;;;;;-141.02;55.19;43799.78;5134356;27;20275;-64
2023/08/29 10:00:21;;;;;;;17.02;16.23;;;;;;;-141.02;55.48;43805.56;5134258;27;20662;-66
2023/08/29 10:02:48;;;;;;;17.00;16.20;;;;;;;-141.02;55.78;43799.78;5134501;27;20283;-65
2023/08/29 10:05:20;;;;;;;16.20;15.50;;;;;;;-141.02;56.17;43792.09;5134414;27;20281;-65
2023/08/29 10:07:50;;;;;;;17.23;16.42;;;;;;;-141.02;56.56;43788.28;5134192;27;20220;-64
2023/08/29 10:10:17;;;;;;;17.20;16.40;;;;;;;-141.02;56.27;43784.44;5134006;27;20746;-64
2023/08/29 10:12:45;;;;;;;17.70;16.90;;;;;;;-141.02;56.67;43763.31;5133918;27;20307;-64
2023/08/29 10:15:12;;;;;;;17.05;16.25;;;;;;;-141.02;56.68;43749.88;5134247;27;20205;-63
2023/08/29 10:17:42;;;;;;;17.35;16.55;;;;;;;-141.02;57.03;43763.31;5134138;27;20196;-65
2023/08/29 10:20:12;;;;;;;16.55;15.85;;;;;;;-141.02;56.62;43811.31;5133845;27;20228;-65
2023/08/29 10:22:45;;;;;;;17.27;16.38;;;;;;;-141.02;56.61;43807.47;5133740;27;20188;-66
2023/08/29 10:25:13;;;;;;;17.25;16.45;;;;;;;-141.02;56.77;43834.34;5133996;27;20235;-66
2023/08/29 10:27:41;;;;;;;17.33;16.52;;;;;;;-141.02;56.33;43822.84;5134032;27;20611;-64
2023/08/29 10:30:09;;;;;;;17.15;16.35;;;;;;;-141.02;55.86;43845.88;5133976;27;20255;-66
2023/08/29 10:32:38;;;;;;;17.02;16.23;;;;;;;-141.02;55.23;43897.72;5133880;27;20654;-65
2023/08/29 10:35:15;;;;;;;17.52;16.63;;;;;;;-141.02;55.27;43874.69;5133892;27;20204;-65
2023/08/29 10:37:42;;;;;;;18.73;17.70;;;;;;;-141.02;55.22;43872.75;5133493;27;20674;-60
2023/08/29 10:40:11;;;;;;;16.77;16.08;;;;;;;-141.02;55.60;43832.44;5133456;27;20233;-64
2023/08/29 10:42:57;;;;;;;20.08;19.17;;;;;;;-141.02;55.34;43857.41;5133573;27;20231;-65
2023/08/29 10:45:43;;;;;;;17.42;16.63;;;;;;;-141.02;54.93;43853.56;5133340;27;20247;-64
2023/08/29 10:48:10;;;;;;;17.25;16.45;;;;;;;-141.02;55.22;43819.00;5133635;27;20254;-66
2023/08/29 10:50:40;;;;;;;17.63;16.73;;;;;;;-141.02;55.68;43868.91;5133621;27;20577;-61
2023/08/29 10:53:18;;;;;;;17.42;16.63;;;;;;;-141.02;55.42;43847.78;5133886;27;20245;-66
2023/08/29 10:55:59;;;;;;;17.58;16.77;;;;;;;-141.02;55.36;43849.72;5133232;27;20709;-65
2023/08/29 10:58:37;;;;;;;17.63;16.73;;;;;;;-141.02;55.57;43849.72;5133548;27;20192;-64
2023/08/29 11:01:04;;;;;;;19.33;18.23;;;;;;;-141.02;55.41;43861.25;5133476;27;20249;-57
2023/08/29 11:03:55;;;;;;;17.45;16.55;;;;;;;-141.02;55.37;43851.63;5133505;27;20205;-65
2023/08/29 11:06:25;;;;;;;17.48;16.58;;;;;;;-141.02;55.25;43849.72;5112820;27;20302;-65
2023/08/29 11:09:16;;;;;;;17.98;17.05;;;;;;;-141.02;55.08;43840.13;5133422;27;20271;-59
2023/08/29 11:11:44;;;;;;;57.38;54.13;;;;;;;-141.02;55.25;43815.16;5132867;27;20224;-64
2023/08/29 11:14:11;;;;;;;44.33;42.00;;;;;;;-141.02;55.37;43795.94;5133000;27;20224;-66
2023/08/29 11:17:11;;;;;;;36.65;34.65;;;;;;;-141.02;55.71;43819.00;5132935;28;20674;-64
2023/08/29 11:19:41;;;;;;;17.42;16.52;;;;;;;-141.02;55.54;43780.59;5132999;28;20184;-65
2023/08/29 11:22:12;;;;;;;17.35;16.45;;;;;;;-141.02;55.87;43795.94;5133242;28;20185;-65
2023/08/29 11:24:39;;;;;;;17.20;16.35;;;;;;;-141.02;56.27;43819.00;5133188;27;20212;-64
2023/08/29 11:27:07;;;;;;;17.55;16.65;;;;;;;-141.02;56.09;43815.16;5133264;27;20254;-65